sensor_id;sensor_type;location;lat;lon;timestamp;P1;durP1;ratioP1;P2;durP2;ratioP2
22955;SDS011;40888;48.148;11.526;2023-02-28T00:00:50;5.13;;;3.97;;
22955;SDS011;40888;48.148;11.526;2023-02-28T00:03:17;4.50;;;4.10;;
22955;SDS011;40888;48.148;11.526;2023-02-28T00:05:43;4.60;;;4.20;;
22955;SDS011;40888;48.148;11.526;2023-02-28T00:08:09;4.47;;;4.07;;
22955;SDS011;40888;48.148;11.526;2023-02-28T00:10:35;5.23;;;4.50;;
22955;SDS011;40888;48.148;11.526;2023-02-28T00:13:03;4.90;;;4.40;;
22955;SDS011;40888;48.148;11.526;2023-02-28T00:15:29;5.63;;;4.70;;
22955;SDS011;40888;48.148;11.526;2023-02-28T00:17:56;4.13;;;3.73;;
22955;SDS011;40888;48.148;11.526;2023-02-28T00:20:22;5.13;;;4.40;;
22955;SDS011;40888;48.148;11.526;2023-02-28T00:22:51;4.87;;;4.37;;
22955;SDS011;40888;48.148;11.526;2023-02-28T00:25:18;5.80;;;4.10;;
22955;SDS011;40888;48.148;11.526;2023-02-28T00:27:45;6.17;;;4.30;;
22955;SDS011;40888;48.148;11.526;2023-02-28T00:30:13;5.20;;;4.43;;
22955;SDS011;40888;48.148;11.526;2023-02-28T00:32:39;4.87;;;4.37;;
22955;SDS011;40888;48.148;11.526;2023-02-28T00:35:12;5.27;;;4.17;;
22955;SDS011;40888;48.148;11.526;2023-02-28T00:37:38;4.83;;;4.33;;
22955;SDS011;40888;48.148;11.526;2023-02-28T00:40:05;5.37;;;4.30;;
22955;SDS011;40888;48.148;11.526;2023-02-28T00:42:31;5.00;;;4.50;;
22955;SDS011;40888;48.148;11.526;2023-02-28T00:44:58;5.60;;;4.13;;
22955;SDS011;40888;48.148;11.526;2023-02-28T00:47:24;5.17;;;4.03;;
22955;SDS011;40888;48.148;11.526;2023-02-28T00:49:50;4.87;;;4.30;;
22955;SDS011;40888;48.148;11.526;2023-02-28T00:52:16;5.10;;;4.50;;
22955;SDS011;40888;48.148;11.526;2023-02-28T00:54:43;4.70;;;4.17;;
22955;SDS011;40888;48.148;11.526;2023-02-28T00:57:09;4.37;;;3.97;;
22955;SDS011;40888;48.148;11.526;2023-02-28T00:59:35;4.50;;;4.10;;
22955;SDS011;40888;48.148;11.526;2023-02-28T01:02:01;4.70;;;4.30;;
22955;SDS011;40888;48.148;11.526;2023-02-28T01:04:27;5.67;;;4.67;;
22955;SDS011;40888;48.148;11.526;2023-02-28T01:06:53;5.53;;;4.87;;
22955;SDS011;40888;48.148;11.526;2023-02-28T01:09:19;4.87;;;4.20;;
22955;SDS011;40888;48.148;11.526;2023-02-28T01:11:45;4.90;;;4.20;;
22955;SDS011;40888;48.148;11.526;2023-02-28T01:14:17;4.40;;;4.00;;
22955;SDS011;40888;48.148;11.526;2023-02-28T01:16:43;5.03;;;4.30;;
22955;SDS011;40888;48.148;11.526;2023-02-28T01:19:10;5.53;;;4.50;;
22955;SDS011;40888;48.148;11.526;2023-02-28T01:21:36;4.83;;;4.33;;
22955;SDS011;40888;48.148;11.526;2023-02-28T01:24:02;6.30;;;4.57;;
22955;SDS011;40888;48.148;11.526;2023-02-28T01:26:29;5.03;;;4.60;;
22955;SDS011;40888;48.148;11.526;2023-02-28T01:28:55;5.03;;;4.53;;
22955;SDS011;40888;48.148;11.526;2023-02-28T01:31:22;6.97;;;4.67;;
22955;SDS011;40888;48.148;11.526;2023-02-28T01:33:48;5.03;;;4.53;;
22955;SDS011;40888;48.148;11.526;2023-02-28T01:36:20;5.30;;;4.80;;
22955;SDS011;40888;48.148;11.526;2023-02-28T01:38:46;5.60;;;4.90;;
22955;SDS011;40888;48.148;11.526;2023-02-28T01:41:15;6.37;;;5.13;;
22955;SDS011;40888;48.148;11.526;2023-02-28T01:46:12;6.57;;;4.63;;
22955;SDS011;40888;48.148;11.526;2023-02-28T01:48:38;6.07;;;5.07;;
22955;SDS011;40888;48.148;11.526;2023-02-28T01:51:08;6.33;;;5.40;;
22955;SDS011;40888;48.148;11.526;2023-02-28T01:53:37;5.10;;;4.60;;
22955;SDS011;40888;48.148;11.526;2023-02-28T01:56:05;5.63;;;4.90;;
22955;SDS011;40888;48.148;11.526;2023-02-28T01:58:32;4.73;;;4.27;;
22955;SDS011;40888;48.148;11.526;2023-02-28T02:00:59;4.67;;;4.27;;
22955;SDS011;40888;48.148;11.526;2023-02-28T02:03:25;5.00;;;4.60;;
22955;SDS011;40888;48.148;11.526;2023-02-28T02:05:51;5.97;;;4.83;;
22955;SDS011;40888;48.148;11.526;2023-02-28T02:08:28;5.50;;;5.00;;
22955;SDS011;40888;48.148;11.526;2023-02-28T02:10:55;5.73;;;4.63;;
22955;SDS011;40888;48.148;11.526;2023-02-28T02:18:37;6.37;;;5.30;;
22955;SDS011;40888;48.148;11.526;2023-02-28T02:23:50;5.47;;;4.97;;
22955;SDS011;40888;48.148;11.526;2023-02-28T02:37:00;6.33;;;5.40;;
22955;SDS011;40888;48.148;11.526;2023-02-28T02:39:31;5.23;;;4.73;;
22955;SDS011;40888;48.148;11.526;2023-02-28T02:42:03;6.47;;;5.17;;
22955;SDS011;40888;48.148;11.526;2023-02-28T02:44:35;5.63;;;5.03;;
22955;SDS011;40888;48.148;11.526;2023-02-28T02:47:06;5.80;;;4.53;;
22955;SDS011;40888;48.148;11.526;2023-02-28T02:49:35;6.53;;;5.27;;
22955;SDS011;40888;48.148;11.526;2023-02-28T02:52:05;6.17;;;5.20;;
22955;SDS011;40888;48.148;11.526;2023-02-28T02:54:33;5.93;;;5.43;;
22955;SDS011;40888;48.148;11.526;2023-02-28T02:57:02;7.07;;;5.80;;
22955;SDS011;40888;48.148;11.526;2023-02-28T02:59:30;5.63;;;4.93;;
22955;SDS011;40888;48.148;11.526;2023-02-28T03:01:57;6.57;;;5.63;;
22955;SDS011;40888;48.148;11.526;2023-02-28T03:04:24;7.37;;;5.60;;
22955;SDS011;40888;48.148;11.526;2023-02-28T03:06:54;6.63;;;5.60;;
22955;SDS011;40888;48.148;11.526;2023-02-28T03:09:20;5.93;;;5.43;;
22955;SDS011;40888;48.148;11.526;2023-02-28T03:11:47;6.10;;;5.50;;
22955;SDS011;40888;48.148;11.526;2023-02-28T03:17:10;7.47;;;5.83;;
22955;SDS011;40888;48.148;11.526;2023-02-28T03:19:45;6.90;;;5.87;;
22955;SDS011;40888;48.148;11.526;2023-02-28T03:22:23;7.20;;;6.50;;
22955;SDS011;40888;48.148;11.526;2023-02-28T03:27:25;6.83;;;6.03;;
22955;SDS011;40888;48.148;11.526;2023-02-28T03:30:39;5.47;;;4.97;;
22955;SDS011;40888;48.148;11.526;2023-02-28T03:35:10;6.37;;;5.77;;
22955;SDS011;40888;48.148;11.526;2023-02-28T03:37:38;7.17;;;6.43;;
22955;SDS011;40888;48.148;11.526;2023-02-28T03:40:13;7.00;;;6.17;;
22955;SDS011;40888;48.148;11.526;2023-02-28T03:42:41;9.10;;;7.07;;
22955;SDS011;40888;48.148;11.526;2023-02-28T03:45:13;8.13;;;7.37;;
22955;SDS011;40888;48.148;11.526;2023-02-28T03:47:45;8.93;;;7.07;;
22955;SDS011;40888;48.148;11.526;2023-02-28T03:50:21;7.40;;;6.70;;
22955;SDS011;40888;48.148;11.526;2023-02-28T03:52:52;8.60;;;7.40;;
22955;SDS011;40888;48.148;11.526;2023-02-28T03:55:26;8.03;;;7.20;;
22955;SDS011;40888;48.148;11.526;2023-02-28T03:58:08;8.93;;;7.47;;
22955;SDS011;40888;48.148;11.526;2023-02-28T04:00:37;9.50;;;8.03;;
22955;SDS011;40888;48.148;11.526;2023-02-28T04:03:04;8.97;;;7.77;;
22955;SDS011;40888;48.148;11.526;2023-02-28T04:05:31;8.73;;;7.87;;
22955;SDS011;40888;48.148;11.526;2023-02-28T04:08:04;9.87;;;8.23;;
22955;SDS011;40888;48.148;11.526;2023-02-28T04:10:30;9.07;;;8.23;;
22955;SDS011;40888;48.148;11.526;2023-02-28T04:12:57;9.10;;;8.20;;
22955;SDS011;40888;48.148;11.526;2023-02-28T04:15:23;8.23;;;7.40;;
22955;SDS011;40888;48.148;11.526;2023-02-28T04:17:49;9.47;;;8.33;;
22955;SDS011;40888;48.148;11.526;2023-02-28T04:20:16;8.70;;;7.43;;
22955;SDS011;40888;48.148;11.526;2023-02-28T04:22:42;8.17;;;7.37;;
22955;SDS011;40888;48.148;11.526;2023-02-28T04:25:08;9.30;;;8.33;;
22955;SDS011;40888;48.148;11.526;2023-02-28T04:27:34;9.10;;;8.13;;
22955;SDS011;40888;48.148;11.526;2023-02-28T04:30:00;10.03;;;9.13;;
22955;SDS011;40888;48.148;11.526;2023-02-28T04:32:26;10.53;;;8.83;;
22955;SDS011;40888;48.148;11.526;2023-02-28T04:34:52;9.63;;;8.53;;
22955;SDS011;40888;48.148;11.526;2023-02-28T04:37:19;10.10;;;9.10;;
22955;SDS011;40888;48.148;11.526;2023-02-28T04:39:45;8.67;;;7.77;;
22955;SDS011;40888;48.148;11.526;2023-02-28T04:42:11;10.13;;;8.83;;
22955;SDS011;40888;48.148;11.526;2023-02-28T04:44:37;10.07;;;8.87;;
22955;SDS011;40888;48.148;11.526;2023-02-28T04:47:03;9.13;;;8.23;;
22955;SDS011;40888;48.148;11.526;2023-02-28T04:49:30;10.07;;;9.07;;
22955;SDS011;40888;48.148;11.526;2023-02-28T04:51:56;9.33;;;8.43;;
22955;SDS011;40888;48.148;11.526;2023-02-28T04:54:22;10.23;;;9.03;;
22955;SDS011;40888;48.148;11.526;2023-02-28T04:56:49;10.13;;;9.13;;
22955;SDS011;40888;48.148;11.526;2023-02-28T04:59:15;10.43;;;9.37;;
22955;SDS011;40888;48.148;11.526;2023-02-28T05:01:45;11.30;;;10.10;;
22955;SDS011;40888;48.148;11.526;2023-02-28T05:04:11;10.60;;;9.50;;
22955;SDS011;40888;48.148;11.526;2023-02-28T05:06:38;10.27;;;9.20;;
22955;SDS011;40888;48.148;11.526;2023-02-28T05:09:05;11.03;;;9.93;;
22955;SDS011;40888;48.148;11.526;2023-02-28T05:11:32;11.80;;;10.60;;
22955;SDS011;40888;48.148;11.526;2023-02-28T05:14:02;10.67;;;9.67;;
22955;SDS011;40888;48.148;11.526;2023-02-28T05:16:29;13.07;;;10.87;;
22955;SDS011;40888;48.148;11.526;2023-02-28T05:18:56;11.80;;;10.70;;
22955;SDS011;40888;48.148;11.526;2023-02-28T05:21:30;11.83;;;10.63;;
22955;SDS011;40888;48.148;11.526;2023-02-28T05:23:57;12.40;;;10.70;;
22955;SDS011;40888;48.148;11.526;2023-02-28T05:26:23;12.57;;;11.10;;
22955;SDS011;40888;48.148;11.526;2023-02-28T05:28:50;12.67;;;11.37;;
22955;SDS011;40888;48.148;11.526;2023-02-28T05:31:16;12.80;;;11.40;;
22955;SDS011;40888;48.148;11.526;2023-02-28T05:33:42;13.93;;;11.30;;
22955;SDS011;40888;48.148;11.526;2023-02-28T05:36:08;13.10;;;11.80;;
22955;SDS011;40888;48.148;11.526;2023-02-28T05:41:13;12.83;;;11.50;;
22955;SDS011;40888;48.148;11.526;2023-02-28T05:43:39;13.77;;;12.37;;
22955;SDS011;40888;48.148;11.526;2023-02-28T05:46:06;14.87;;;12.93;;
22955;SDS011;40888;48.148;11.526;2023-02-28T05:48:35;13.43;;;11.97;;
22955;SDS011;40888;48.148;11.526;2023-02-28T05:51:03;14.53;;;12.07;;
22955;SDS011;40888;48.148;11.526;2023-02-28T05:53:35;14.13;;;12.63;;
22955;SDS011;40888;48.148;11.526;2023-02-28T05:56:02;14.13;;;12.57;;
22955;SDS011;40888;48.148;11.526;2023-02-28T05:58:28;14.90;;;13.33;;
22955;SDS011;40888;48.148;11.526;2023-02-28T06:03:51;16.33;;;13.33;;
22955;SDS011;40888;48.148;11.526;2023-02-28T06:06:17;14.57;;;13.27;;
22955;SDS011;40888;48.148;11.526;2023-02-28T06:08:44;15.23;;;13.07;;
22955;SDS011;40888;48.148;11.526;2023-02-28T06:11:13;15.23;;;13.57;;
22955;SDS011;40888;48.148;11.526;2023-02-28T06:13:39;15.90;;;14.23;;
22955;SDS011;40888;48.148;11.526;2023-02-28T06:16:05;15.67;;;13.97;;
22955;SDS011;40888;48.148;11.526;2023-02-28T06:18:34;15.17;;;13.57;;
22955;SDS011;40888;48.148;11.526;2023-02-28T06:21:00;16.07;;;13.93;;
22955;SDS011;40888;48.148;11.526;2023-02-28T06:23:26;16.30;;;14.60;;
22955;SDS011;40888;48.148;11.526;2023-02-28T06:25:52;16.90;;;15.10;;
22955;SDS011;40888;48.148;11.526;2023-02-28T06:28:21;17.87;;;15.73;;
22955;SDS011;40888;48.148;11.526;2023-02-28T06:30:47;17.27;;;15.37;;
22955;SDS011;40888;48.148;11.526;2023-02-28T06:33:13;17.33;;;15.27;;
22955;SDS011;40888;48.148;11.526;2023-02-28T06:35:39;18.30;;;16.07;;
22955;SDS011;40888;48.148;11.526;2023-02-28T06:38:05;16.40;;;14.67;;
22955;SDS011;40888;48.148;11.526;2023-02-28T06:40:31;16.27;;;14.57;;
22955;SDS011;40888;48.148;11.526;2023-02-28T06:43:00;17.57;;;15.10;;
22955;SDS011;40888;48.148;11.526;2023-02-28T06:45:26;16.27;;;14.43;;
22955;SDS011;40888;48.148;11.526;2023-02-28T06:47:52;15.97;;;14.37;;
22955;SDS011;40888;48.148;11.526;2023-02-28T06:50:18;17.17;;;15.33;;
22955;SDS011;40888;48.148;11.526;2023-02-28T06:52:45;17.40;;;15.53;;
22955;SDS011;40888;48.148;11.526;2023-02-28T06:55:11;17.20;;;15.50;;
22955;SDS011;40888;48.148;11.526;2023-02-28T06:57:38;21.47;;;16.87;;
22955;SDS011;40888;48.148;11.526;2023-02-28T07:00:05;18.13;;;16.17;;
22955;SDS011;40888;48.148;11.526;2023-02-28T07:02:32;18.80;;;16.90;;
22955;SDS011;40888;48.148;11.526;2023-02-28T07:04:59;18.37;;;15.10;;
22955;SDS011;40888;48.148;11.526;2023-02-28T07:07:25;17.93;;;16.13;;
22955;SDS011;40888;48.148;11.526;2023-02-28T07:09:51;18.93;;;15.57;;
22955;SDS011;40888;48.148;11.526;2023-02-28T07:12:17;17.63;;;15.70;;
22955;SDS011;40888;48.148;11.526;2023-02-28T07:14:43;19.53;;;16.00;;
22955;SDS011;40888;48.148;11.526;2023-02-28T07:17:10;18.50;;;16.60;;
22955;SDS011;40888;48.148;11.526;2023-02-28T07:19:40;17.93;;;16.07;;
22955;SDS011;40888;48.148;11.526;2023-02-28T07:22:06;17.77;;;15.93;;
22955;SDS011;40888;48.148;11.526;2023-02-28T07:24:32;19.73;;;17.23;;
22955;SDS011;40888;48.148;11.526;2023-02-28T07:26:58;20.80;;;16.33;;
22955;SDS011;40888;48.148;11.526;2023-02-28T07:29:26;17.43;;;15.53;;
22955;SDS011;40888;48.148;11.526;2023-02-28T07:31:52;17.67;;;15.80;;
22955;SDS011;40888;48.148;11.526;2023-02-28T07:34:19;16.93;;;15.13;;
22955;SDS011;40888;48.148;11.526;2023-02-28T07:36:45;18.00;;;15.40;;
22955;SDS011;40888;48.148;11.526;2023-02-28T07:39:11;18.57;;;15.53;;
22955;SDS011;40888;48.148;11.526;2023-02-28T07:41:37;17.03;;;15.33;;
22955;SDS011;40888;48.148;11.526;2023-02-28T07:44:11;18.67;;;16.53;;
22955;SDS011;40888;48.148;11.526;2023-02-28T07:46:37;18.23;;;16.33;;
22955;SDS011;40888;48.148;11.526;2023-02-28T07:49:03;19.23;;;17.23;;
22955;SDS011;40888;48.148;11.526;2023-02-28T07:51:30;18.90;;;16.90;;
22955;SDS011;40888;48.148;11.526;2023-02-28T07:53:56;18.43;;;15.97;;
22955;SDS011;40888;48.148;11.526;2023-02-28T07:56:22;19.13;;;16.17;;
22955;SDS011;40888;48.148;11.526;2023-02-28T07:58:48;20.33;;;17.57;;
22955;SDS011;40888;48.148;11.526;2023-02-28T08:01:15;19.43;;;17.33;;
22955;SDS011;40888;48.148;11.526;2023-02-28T08:03:41;19.40;;;16.53;;
22955;SDS011;40888;48.148;11.526;2023-02-28T08:06:08;18.47;;;16.47;;
22955;SDS011;40888;48.148;11.526;2023-02-28T08:08:40;19.97;;;17.33;;
22955;SDS011;40888;48.148;11.526;2023-02-28T08:11:06;19.53;;;17.50;;
22955;SDS011;40888;48.148;11.526;2023-02-28T08:13:32;19.53;;;17.03;;
22955;SDS011;40888;48.148;11.526;2023-02-28T08:16:00;21.00;;;17.50;;
22955;SDS011;40888;48.148;11.526;2023-02-28T08:18:27;20.03;;;17.07;;
22955;SDS011;40888;48.148;11.526;2023-02-28T08:20:53;18.30;;;16.40;;
22955;SDS011;40888;48.148;11.526;2023-02-28T08:23:19;18.23;;;16.40;;
22955;SDS011;40888;48.148;11.526;2023-02-28T08:25:52;18.20;;;16.27;;
22955;SDS011;40888;48.148;11.526;2023-02-28T08:28:18;18.30;;;16.50;;
22955;SDS011;40888;48.148;11.526;2023-02-28T08:30:44;20.53;;;16.17;;
22955;SDS011;40888;48.148;11.526;2023-02-28T08:33:10;18.87;;;16.73;;
22955;SDS011;40888;48.148;11.526;2023-02-28T08:35:36;18.40;;;16.37;;
22955;SDS011;40888;48.148;11.526;2023-02-28T08:38:03;19.50;;;17.53;;
22955;SDS011;40888;48.148;11.526;2023-02-28T08:40:29;18.73;;;16.40;;
22955;SDS011;40888;48.148;11.526;2023-02-28T08:42:55;19.27;;;17.27;;
22955;SDS011;40888;48.148;11.526;2023-02-28T08:45:21;18.87;;;16.40;;
22955;SDS011;40888;48.148;11.526;2023-02-28T08:47:47;20.40;;;17.10;;
22955;SDS011;40888;48.148;11.526;2023-02-28T08:50:13;21.10;;;17.87;;
22955;SDS011;40888;48.148;11.526;2023-02-28T08:52:42;18.03;;;16.10;;
22955;SDS011;40888;48.148;11.526;2023-02-28T08:55:08;20.37;;;16.53;;
22955;SDS011;40888;48.148;11.526;2023-02-28T08:57:35;19.53;;;17.10;;
22955;SDS011;40888;48.148;11.526;2023-02-28T09:00:02;18.00;;;16.17;;
22955;SDS011;40888;48.148;11.526;2023-02-28T09:02:31;19.63;;;17.20;;
22955;SDS011;40888;48.148;11.526;2023-02-28T09:04:58;21.03;;;18.60;;
22955;SDS011;40888;48.148;11.526;2023-02-28T09:07:24;22.13;;;18.17;;
22955;SDS011;40888;48.148;11.526;2023-02-28T09:09:50;20.33;;;18.23;;
22955;SDS011;40888;48.148;11.526;2023-02-28T09:12:20;18.73;;;16.83;;
22955;SDS011;40888;48.148;11.526;2023-02-28T09:14:46;18.80;;;16.67;;
22955;SDS011;40888;48.148;11.526;2023-02-28T09:17:12;18.70;;;16.77;;
22955;SDS011;40888;48.148;11.526;2023-02-28T09:19:39;18.90;;;16.90;;
22955;SDS011;40888;48.148;11.526;2023-02-28T09:22:05;17.97;;;16.00;;
22955;SDS011;40888;48.148;11.526;2023-02-28T09:24:31;19.10;;;15.33;;
22955;SDS011;40888;48.148;11.526;2023-02-28T09:26:57;17.50;;;15.63;;
22955;SDS011;40888;48.148;11.526;2023-02-28T09:29:23;19.10;;;15.93;;
22955;SDS011;40888;48.148;11.526;2023-02-28T09:31:49;17.63;;;15.83;;
22955;SDS011;40888;48.148;11.526;2023-02-28T09:34:16;19.30;;;16.30;;
22955;SDS011;40888;48.148;11.526;2023-02-28T09:36:42;19.17;;;16.73;;
22955;SDS011;40888;48.148;11.526;2023-02-28T09:39:08;17.47;;;15.67;;
22955;SDS011;40888;48.148;11.526;2023-02-28T09:41:37;17.27;;;15.23;;
22955;SDS011;40888;48.148;11.526;2023-02-28T09:44:05;19.27;;;17.27;;
22955;SDS011;40888;48.148;11.526;2023-02-28T09:46:37;19.30;;;16.67;;
22955;SDS011;40888;48.148;11.526;2023-02-28T09:49:07;17.83;;;15.97;;
22955;SDS011;40888;48.148;11.526;2023-02-28T09:54:15;17.53;;;15.70;;
22955;SDS011;40888;48.148;11.526;2023-02-28T09:56:44;20.30;;;15.40;;
22955;SDS011;40888;48.148;11.526;2023-02-28T10:02:02;17.90;;;16.00;;
22955;SDS011;40888;48.148;11.526;2023-02-28T10:07:23;19.03;;;17.03;;
22955;SDS011;40888;48.148;11.526;2023-02-28T10:09:55;16.50;;;14.87;;
22955;SDS011;40888;48.148;11.526;2023-02-28T10:12:23;17.57;;;15.73;;
22955;SDS011;40888;48.148;11.526;2023-02-28T10:14:50;17.60;;;15.70;;
22955;SDS011;40888;48.148;11.526;2023-02-28T10:17:19;17.40;;;15.60;;
22955;SDS011;40888;48.148;11.526;2023-02-28T10:24:45;17.80;;;15.47;;
22955;SDS011;40888;48.148;11.526;2023-02-28T10:27:24;17.27;;;15.47;;
22955;SDS011;40888;48.148;11.526;2023-02-28T10:29:53;17.37;;;15.57;;
22955;SDS011;40888;48.148;11.526;2023-02-28T10:32:21;18.60;;;14.90;;
22955;SDS011;40888;48.148;11.526;2023-02-28T10:34:52;16.40;;;14.70;;
22955;SDS011;40888;48.148;11.526;2023-02-28T10:37:21;16.80;;;15.10;;
22955;SDS011;40888;48.148;11.526;2023-02-28T10:39:47;15.70;;;14.13;;
22955;SDS011;40888;48.148;11.526;2023-02-28T10:44:45;15.80;;;14.10;;
22955;SDS011;40888;48.148;11.526;2023-02-28T10:47:14;16.47;;;14.67;;
22955;SDS011;40888;48.148;11.526;2023-02-28T10:49:46;17.07;;;13.70;;
22955;SDS011;40888;48.148;11.526;2023-02-28T10:52:13;15.70;;;14.10;;
22955;SDS011;40888;48.148;11.526;2023-02-28T10:54:39;15.13;;;13.53;;
22955;SDS011;40888;48.148;11.526;2023-02-28T10:59:32;16.13;;;14.43;;
22955;SDS011;40888;48.148;11.526;2023-02-28T11:01:58;14.87;;;13.37;;
22955;SDS011;40888;48.148;11.526;2023-02-28T11:07:03;14.90;;;13.50;;
22955;SDS011;40888;48.148;11.526;2023-02-28T11:09:34;15.30;;;13.70;;
22955;SDS011;40888;48.148;11.526;2023-02-28T11:12:00;16.20;;;14.30;;
22955;SDS011;40888;48.148;11.526;2023-02-28T11:14:28;14.63;;;13.17;;
22955;SDS011;40888;48.148;11.526;2023-02-28T11:16:56;16.00;;;14.30;;
22955;SDS011;40888;48.148;11.526;2023-02-28T11:19:25;16.20;;;14.03;;
22955;SDS011;40888;48.148;11.526;2023-02-28T11:21:54;15.67;;;14.17;;
22955;SDS011;40888;48.148;11.526;2023-02-28T11:24:31;14.70;;;13.20;;
22955;SDS011;40888;48.148;11.526;2023-02-28T11:26:59;15.10;;;13.50;;
22955;SDS011;40888;48.148;11.526;2023-02-28T11:29:26;14.93;;;13.43;;
22955;SDS011;40888;48.148;11.526;2023-02-28T11:32:00;14.20;;;12.80;;
22955;SDS011;40888;48.148;11.526;2023-02-28T11:34:27;14.10;;;12.57;;
22955;SDS011;40888;48.148;11.526;2023-02-28T11:36:57;14.23;;;12.83;;
22955;SDS011;40888;48.148;11.526;2023-02-28T11:39:24;13.43;;;12.07;;
22955;SDS011;40888;48.148;11.526;2023-02-28T11:44:28;13.90;;;12.50;;
22955;SDS011;40888;48.148;11.526;2023-02-28T11:47:00;16.47;;;12.93;;
22955;SDS011;40888;48.148;11.526;2023-02-28T11:49:47;13.73;;;12.33;;
22955;SDS011;40888;48.148;11.526;2023-02-28T11:52:35;13.30;;;11.90;;
22955;SDS011;40888;48.148;11.526;2023-02-28T11:58:03;14.47;;;12.00;;
22955;SDS011;40888;48.148;11.526;2023-02-28T12:11:05;12.70;;;9.57;;
22955;SDS011;40888;48.148;11.526;2023-02-28T12:18:57;14.30;;;11.77;;
22955;SDS011;40888;48.148;11.526;2023-02-28T12:21:49;13.60;;;11.40;;
22955;SDS011;40888;48.148;11.526;2023-02-28T12:26:48;15.33;;;11.60;;
22955;SDS011;40888;48.148;11.526;2023-02-28T12:29:23;11.40;;;10.30;;
22955;SDS011;40888;48.148;11.526;2023-02-28T12:34:22;12.10;;;9.20;;
22955;SDS011;40888;48.148;11.526;2023-02-28T12:36:49;12.83;;;10.13;;
22955;SDS011;40888;48.148;11.526;2023-02-28T12:39:21;12.43;;;11.07;;
22955;SDS011;40888;48.148;11.526;2023-02-28T12:41:51;13.47;;;9.30;;
22955;SDS011;40888;48.148;11.526;2023-02-28T12:44:31;12.50;;;11.20;;
22955;SDS011;40888;48.148;11.526;2023-02-28T12:47:00;12.53;;;8.50;;
22955;SDS011;40888;48.148;11.526;2023-02-28T12:49:34;11.30;;;10.13;;
22955;SDS011;40888;48.148;11.526;2023-02-28T12:52:02;11.17;;;9.07;;
22955;SDS011;40888;48.148;11.526;2023-02-28T12:54:36;12.00;;;9.43;;
22955;SDS011;40888;48.148;11.526;2023-02-28T12:57:22;11.47;;;10.17;;
22955;SDS011;40888;48.148;11.526;2023-02-28T12:59:56;13.23;;;10.40;;
22955;SDS011;40888;48.148;11.526;2023-02-28T13:02:38;10.90;;;9.77;;
22955;SDS011;40888;48.148;11.526;2023-02-28T13:10:00;13.60;;;10.77;;
22955;SDS011;40888;48.148;11.526;2023-02-28T13:12:28;12.10;;;10.33;;
22955;SDS011;40888;48.148;11.526;2023-02-28T13:17:40;11.57;;;8.50;;
22955;SDS011;40888;48.148;11.526;2023-02-28T13:20:14;13.40;;;9.63;;
22955;SDS011;40888;48.148;11.526;2023-02-28T13:22:42;11.10;;;9.93;;
22955;SDS011;40888;48.148;11.526;2023-02-28T13:27:47;11.87;;;10.67;;
22955;SDS011;40888;48.148;11.526;2023-02-28T13:33:46;11.57;;;10.13;;
22955;SDS011;40888;48.148;11.526;2023-02-28T13:38:36;12.23;;;10.70;;
22955;SDS011;40888;48.148;11.526;2023-02-28T13:46:29;11.87;;;10.67;;
22955;SDS011;40888;48.148;11.526;2023-02-28T13:48:55;11.63;;;10.43;;
22955;SDS011;40888;48.148;11.526;2023-02-28T13:53:57;10.97;;;9.97;;
22955;SDS011;40888;48.148;11.526;2023-02-28T13:56:35;11.97;;;10.73;;
22955;SDS011;40888;48.148;11.526;2023-02-28T13:59:15;12.03;;;10.73;;
22955;SDS011;40888;48.148;11.526;2023-02-28T14:01:46;11.73;;;10.53;;
22955;SDS011;40888;48.148;11.526;2023-02-28T14:06:55;11.97;;;10.67;;
22955;SDS011;40888;48.148;11.526;2023-02-28T14:09:25;12.43;;;11.23;;
22955;SDS011;40888;48.148;11.526;2023-02-28T14:17:06;13.87;;;10.77;;
22955;SDS011;40888;48.148;11.526;2023-02-28T14:19:35;11.63;;;10.53;;
22955;SDS011;40888;48.148;11.526;2023-02-28T14:35:04;11.80;;;10.67;;
22955;SDS011;40888;48.148;11.526;2023-02-28T14:37:33;12.70;;;10.83;;
22955;SDS011;40888;48.148;11.526;2023-02-28T14:39:59;12.93;;;11.53;;
22955;SDS011;40888;48.148;11.526;2023-02-28T14:42:30;10.97;;;9.97;;
22955;SDS011;40888;48.148;11.526;2023-02-28T14:44:57;12.47;;;11.20;;
22955;SDS011;40888;48.148;11.526;2023-02-28T14:47:24;13.00;;;11.67;;
22955;SDS011;40888;48.148;11.526;2023-02-28T14:49:53;12.17;;;10.87;;
22955;SDS011;40888;48.148;11.526;2023-02-28T14:52:21;12.13;;;10.33;;
22955;SDS011;40888;48.148;11.526;2023-02-28T14:54:52;12.00;;;10.80;;
22955;SDS011;40888;48.148;11.526;2023-02-28T14:57:20;12.37;;;11.17;;
22955;SDS011;40888;48.148;11.526;2023-02-28T14:59:56;12.00;;;10.87;;
22955;SDS011;40888;48.148;11.526;2023-02-28T15:02:24;13.07;;;11.50;;
22955;SDS011;40888;48.148;11.526;2023-02-28T15:04:54;12.93;;;11.33;;
22955;SDS011;40888;48.148;11.526;2023-02-28T15:07:21;12.30;;;11.10;;
22955;SDS011;40888;48.148;11.526;2023-02-28T15:12:38;11.37;;;10.30;;
22955;SDS011;40888;48.148;11.526;2023-02-28T15:15:06;12.43;;;10.27;;
22955;SDS011;40888;48.148;11.526;2023-02-28T15:20:04;11.57;;;10.37;;
22955;SDS011;40888;48.148;11.526;2023-02-28T15:22:33;12.30;;;10.93;;
22955;SDS011;40888;48.148;11.526;2023-02-28T15:25:01;11.97;;;10.27;;
22955;SDS011;40888;48.148;11.526;2023-02-28T15:27:29;10.57;;;9.57;;
22955;SDS011;40888;48.148;11.526;2023-02-28T15:30:11;10.57;;;9.57;;
22955;SDS011;40888;48.148;11.526;2023-02-28T15:32:40;11.20;;;9.17;;
22955;SDS011;40888;48.148;11.526;2023-02-28T15:37:55;11.70;;;10.47;;
22955;SDS011;40888;48.148;11.526;2023-02-28T15:40:38;11.00;;;9.83;;
22955;SDS011;40888;48.148;11.526;2023-02-28T15:43:07;11.53;;;10.43;;
22955;SDS011;40888;48.148;11.526;2023-02-28T15:45:44;11.60;;;10.07;;
22955;SDS011;40888;48.148;11.526;2023-02-28T15:48:13;12.53;;;10.60;;
22955;SDS011;40888;48.148;11.526;2023-02-28T15:50:40;12.43;;;11.13;;
22955;SDS011;40888;48.148;11.526;2023-02-28T15:53:11;12.67;;;10.73;;
22955;SDS011;40888;48.148;11.526;2023-02-28T15:55:38;11.93;;;10.10;;
22955;SDS011;40888;48.148;11.526;2023-02-28T15:58:04;13.47;;;9.77;;
22955;SDS011;40888;48.148;11.526;2023-02-28T16:00:31;12.80;;;9.67;;
22955;SDS011;40888;48.148;11.526;2023-02-28T16:02:58;13.07;;;11.63;;
22955;SDS011;40888;48.148;11.526;2023-02-28T16:05:25;11.97;;;10.77;;
22955;SDS011;40888;48.148;11.526;2023-02-28T16:08:00;11.13;;;10.00;;
22955;SDS011;40888;48.148;11.526;2023-02-28T16:10:28;12.13;;;10.63;;
22955;SDS011;40888;48.148;11.526;2023-02-28T16:12:55;13.70;;;11.60;;
22955;SDS011;40888;48.148;11.526;2023-02-28T16:15:23;14.53;;;11.80;;
22955;SDS011;40888;48.148;11.526;2023-02-28T16:17:51;12.17;;;10.97;;
22955;SDS011;40888;48.148;11.526;2023-02-28T16:20:19;12.53;;;11.23;;
22955;SDS011;40888;48.148;11.526;2023-02-28T16:22:45;13.73;;;11.83;;
22955;SDS011;40888;48.148;11.526;2023-02-28T16:25:12;13.13;;;11.80;;
22955;SDS011;40888;48.148;11.526;2023-02-28T16:27:40;13.17;;;11.80;;
22955;SDS011;40888;48.148;11.526;2023-02-28T16:30:09;12.47;;;11.27;;
22955;SDS011;40888;48.148;11.526;2023-02-28T16:32:41;13.07;;;11.77;;
22955;SDS011;40888;48.148;11.526;2023-02-28T16:35:12;12.70;;;11.37;;
22955;SDS011;40888;48.148;11.526;2023-02-28T16:37:39;13.47;;;12.17;;
22955;SDS011;40888;48.148;11.526;2023-02-28T16:40:06;14.60;;;12.27;;